Airfield :
LOGIN :

Register | Disclaimer

   EN    FR    IT 

 










Legend :    VFR   Marginal VFR   IFR   Intensive IFR   Very Intensive IFR
Visi :
Ceiling :
>= 8 km
>= 3000ft
5 to 8 km
1000 to 3000 ft
1500m to 5 km
500 to 1000 ft
800 to 1500m
200 to 500 ft
< 800m
< 200 ft
Symbols :   Thunderstorms  Fog  Heavy snow  Heavy precipitations  Wind > 20 kt
SIGMETs :     Misc.  Thunderstorms  Icing  Turbulence  Mountain Waves  Volcanic Ashes







- Airport Elevation : 160 ft
- IATA code : FMO


EDDG - Münster Osnabrück Int.

CURRENT METAR :
  • 220150Z VRB01KT 0200 R25/0375N FG BKN001 05/04 Q1032 NOSIG

EXPIRED METARs :
  • 220120Z 34001KT 0100 R25/0250V0400N FG FEW010 05/05 Q1032 TEMPO BKN001
  • 220050Z 04001KT 0500 0100W R25/0300V0650U FG NSC 06/05 Q1032 TEMPO BKN001
  • 220020Z VRB02KT 1100 0300W R25/0750VP2000U BCFG BR NSC 06/06 Q1032 BECMG 0100 FG BKN002
  • 212350Z VRB02KT 1800 0700E R25/1900N BCFG BR NSC 06/06 Q1032 BECMG BKN002
  • 212320Z 01003KT 3000 BR NSC 07/06 Q1033 TEMPO 2000

TAF AMD TAF EDDG
Valid from the 22 at 01:00 until the 23 at 00:00 UTC


220140Z 2201/2224 VRB03KT 1200 BR NSC
TEMPO 2201/2207 0200 FG BKN001
BECMG 2204/2207 3000 BR
TEMPO 2207/2208 BKN004
BECMG 2207/2210 CAVOK
No reported NOTAMs for that airfield.



MET'MAP, your aeronautical weather chart ! - Copyright ORBIFLY December 2007 - Disclaimer

ORBIFLY MET'MAP TEAM :

Programming & Development : Alexandra Zaïnal
Concept & Development : Baudouin d'Aumeries
Co-Development & Prog : Marc-Olivier Méhu
Technical & hardware support : Manuel Goepfert

Contact : metmap@orbifly.com




SOURCES & CREDITS :

   NOAA